Time;durP1;ratioP1;P1;durP2;ratioP2;P2;SDS_P1;SDS_P2;PMS_P1;PMS_P2;Temp;Humidity;BMP_temperature;BMP_pressure;BME280_temperature;BME280_humidity;BME280_pressure;Samples;Min_cycle;Max_cycle;Signal;HPM_P1;HPM_P2
2022/09/13 00:00:21;;;;;;;4.30;3.80;;;20.70;99.90;;;;;;5033255;28;20571;-81
2022/09/13 00:02:47;;;;;;;8.23;3.80;;;20.80;99.90;;;;;;5032917;28;20176;-80
2022/09/13 00:05:12;;;;;;;6.75;3.20;;;20.80;99.90;;;;;;5032418;28;20184;-80
2022/09/13 00:07:38;;;;;;;7.57;3.40;;;20.80;99.90;;;;;;5033069;28;20309;-80
2022/09/13 00:10:04;;;;;;;5.80;3.50;;;20.80;99.90;;;;;;5033348;28;20168;-82
2022/09/13 00:12:30;;;;;;;7.20;3.88;;;20.80;99.90;;;;;;5015394;28;20519;-81
2022/09/13 00:14:55;;;;;;;5.15;3.08;;;20.80;99.90;;;;;;5032994;28;20195;-83
2022/09/13 00:17:21;;;;;;;5.57;3.58;;;20.70;99.90;;;;;;5032842;28;20198;-83
2022/09/13 00:19:47;;;;;;;4.15;3.08;;;20.70;99.90;;;;;;5032744;28;20622;-80
2022/09/13 00:22:12;;;;;;;4.50;2.30;;;20.70;99.90;;;;;;5016326;28;20184;-92
2022/09/13 00:24:38;;;;;;;3.83;3.03;;;20.60;99.90;;;;;;5034345;28;20219;-79
2022/09/13 00:27:04;;;;;;;5.20;3.15;;;20.60;99.90;;;;;;5034346;28;20211;-92
2022/09/13 00:29:29;;;;;;;2.50;2.30;;;20.60;99.90;;;;;;5033816;28;20226;-92
2022/09/13 00:31:55;;;;;;;3.20;2.50;;;20.70;99.90;;;;;;5016477;28;20172;-93
2022/09/13 00:34:21;;;;;;;7.57;2.75;;;20.60;99.90;;;;;;5034403;28;20180;-81
2022/09/13 00:36:46;;;;;;;2.72;2.28;;;20.40;99.90;;;;;;5034498;28;20168;-92
2022/09/13 00:39:12;;;;;;;3.63;2.72;;;20.60;99.90;;;;;;5034448;28;20617;-91
2022/09/13 00:41:38;;;;;;;4.93;2.78;;;20.60;99.90;;;;;;5034046;28;20175;-91
2022/09/13 00:44:05;;;;;;;9.80;2.47;;;20.70;99.90;;;;;;5016484;28;20258;-91
2022/09/13 00:46:40;;;;;;;5.18;3.00;;;20.70;99.90;;;;;;5016650;28;20286;-91
2022/09/13 00:49:15;;;;;;;4.00;2.65;;;20.60;99.90;;;;;;5033891;28;20585;-87
2022/09/13 00:52:04;;;;;;;7.00;2.75;;;20.70;99.90;;;;;;5016353;28;20176;-80
2022/09/13 00:54:39;;;;;;;4.40;2.95;;;20.80;99.90;;;;;;5033618;28;20237;-92
2022/09/13 00:57:06;;;;;;;6.57;2.92;;;20.80;99.90;;;;;;5016212;28;20262;-83
2022/09/13 00:59:51;;;;;;;3.17;2.70;;;20.70;99.90;;;;;;5033328;28;20171;-79
2022/09/13 01:02:17;;;;;;;6.35;2.70;;;20.60;99.90;;;;;;5033544;28;20184;-86
2022/09/13 01:04:43;;;;;;;5.80;2.50;;;20.80;99.90;;;;;;5015473;28;20333;-88
2022/09/13 01:07:15;;;;;;;5.82;2.85;;;20.80;99.90;;;;;;5033790;28;20203;-81
2022/09/13 01:09:44;;;;;;;3.15;2.58;;;20.80;99.90;;;;;;5034455;28;20610;-85
2022/09/13 01:12:36;;;;;;;5.45;2.90;;;20.70;99.90;;;;;;5034259;28;20263;-80
2022/09/13 01:15:04;;;;;;;3.13;2.83;;;20.80;99.90;;;;;;5033442;28;20203;-92
2022/09/13 01:17:32;;;;;;;6.25;2.38;;;20.90;99.90;;;;;;5016481;28;20186;-87
2022/09/13 01:19:59;;;;;;;6.78;2.30;;;20.90;99.90;;;;;;5033662;28;20171;-88
2022/09/13 01:22:38;;;;;;;8.27;2.60;;;20.70;99.90;;;;;;5032813;28;20634;-82
2022/09/13 01:25:09;;;;;;;2.92;2.58;;;20.70;99.90;;;;;;5014561;28;20197;-84
2022/09/13 01:28:12;;;;;;;6.45;2.83;;;20.80;99.90;;;;;;5032724;28;20188;-89
2022/09/13 01:30:53;;;;;;;3.83;2.40;;;20.80;99.90;;;;;;5032852;28;20177;-87
2022/09/13 01:33:34;;;;;;;3.05;2.75;;;20.90;99.90;;;;;;5032537;28;20175;-79
2022/09/13 01:36:22;;;;;;;2.75;2.50;;;21.00;99.90;;;;;;5032282;28;20187;-80
2022/09/13 01:39:05;;;;;;;6.57;2.67;;;20.80;99.90;;;;;;5005902;28;20172;-79
2022/09/13 01:41:52;;;;;;;8.85;2.75;;;20.70;99.90;;;;;;5042420;28;20185;-79
2022/09/13 01:44:37;;;;;;;4.97;2.42;;;20.70;99.90;;;;;;5060470;28;20175;-80
2022/09/13 01:47:22;;;;;;;2.67;1.98;;;20.70;99.90;;;;;;5047872;28;20206;-82
2022/09/13 01:50:09;;;;;;;3.65;2.53;;;20.60;99.90;;;;;;5026439;28;20306;-81
2022/09/13 01:52:40;;;;;;;10.52;2.25;;;20.60;99.90;;;;;;5060828;28;20180;-80
2022/09/13 01:55:34;;;;;;;6.50;2.53;;;20.70;99.90;;;;;;5059505;28;20191;-81
2022/09/13 01:58:08;;;;;;;2.42;2.00;;;20.60;99.90;;;;;;5042748;28;20212;-80
2022/09/13 02:00:40;;;;;;;3.22;2.22;;;20.40;99.90;;;;;;5041691;28;20183;-80
2022/09/13 02:03:38;;;;;;;4.53;2.38;;;20.40;99.90;;;;;;5020140;28;20202;-79
2022/09/13 02:06:09;;;;;;;4.10;2.63;;;20.60;99.90;;;;;;5020481;28;20266;-81
2022/09/13 02:08:43;;;;;;;6.95;2.70;;;20.60;99.90;;;;;;5037432;28;20168;-79
2022/09/13 02:11:11;;;;;;;7.22;2.50;;;20.60;99.90;;;;;;5037403;28;20638;-80
2022/09/13 02:13:46;;;;;;;2.13;1.92;;;20.60;99.90;;;;;;5035738;28;20168;-81
2022/09/13 02:16:18;;;;;;;2.58;2.20;;;20.70;99.90;;;;;;5034999;28;20229;-81
2022/09/13 02:18:50;;;;;;;5.00;2.40;;;20.60;99.90;;;;;;5017227;28;20184;-80
2022/09/13 02:21:28;;;;;;;4.35;2.95;;;20.60;99.90;;;;;;5035070;28;20164;-81
2022/09/13 02:24:10;;;;;;;2.67;2.08;;;20.60;99.90;;;;;;5016798;28;20171;-81
2022/09/13 02:26:38;;;;;;;4.80;3.03;;;20.60;99.90;;;;;;5016975;28;20216;-80
2022/09/13 02:29:10;;;;;;;5.50;2.47;;;20.50;99.90;;;;;;5034801;28;20160;-81
2022/09/13 02:31:41;;;;;;;2.47;2.28;;;20.50;99.90;;;;;;5017323;28;20302;-81
2022/09/13 02:34:14;;;;;;;4.13;2.20;;;20.50;99.90;;;;;;5034556;28;20188;-80
2022/09/13 02:36:43;;;;;;;2.50;2.20;;;20.30;99.90;;;;;;5016648;28;20672;-80
2022/09/13 02:39:14;;;;;;;3.53;2.50;;;20.30;99.90;;;;;;5034652;28;20198;-80
2022/09/13 02:42:21;;;;;;;4.68;2.85;;;20.30;99.90;;;;;;5035187;28;20230;-80
2022/09/13 02:44:52;;;;;;;3.20;2.03;;;20.10;99.90;;;;;;4963335;28;20269;-80
2022/09/13 02:47:40;;;;;;;3.90;2.55;;;20.20;99.90;;;;;;5034192;28;20223;-84
2022/09/13 02:50:06;;;;;;;2.92;2.13;;;20.30;99.90;;;;;;5016256;28;20176;-80
2022/09/13 02:52:38;;;;;;;7.18;2.00;;;20.30;99.90;;;;;;5033262;28;20163;-80
2022/09/13 02:55:31;;;;;;;2.50;1.77;;;20.40;99.90;;;;;;5016487;28;20725;-80
2022/09/13 02:58:08;;;;;;;2.53;1.70;;;20.50;99.90;;;;;;5034084;28;20534;-82
2022/09/13 03:00:34;;;;;;;3.88;2.13;;;20.40;99.90;;;;;;5034325;28;20163;-84
2022/09/13 03:03:05;;;;;;;1.90;1.80;;;20.40;99.90;;;;;;5032662;28;20194;-81
2022/09/13 03:05:31;;;;;;;3.67;2.00;;;20.40;99.90;;;;;;5034012;28;20216;-80
2022/09/13 03:07:59;;;;;;;2.55;2.13;;;20.40;99.90;;;;;;5034209;28;20195;-80
2022/09/13 03:10:32;;;;;;;3.80;2.85;;;20.40;99.90;;;;;;5034494;28;20234;-81
2022/09/13 03:13:00;;;;;;;2.58;2.30;;;20.50;99.90;;;;;;5016059;28;20179;-80
2022/09/13 03:15:44;;;;;;;9.15;2.17;;;20.60;99.90;;;;;;5033905;28;20191;-80
2022/09/13 03:18:16;;;;;;;2.53;2.08;;;20.60;99.90;;;;;;5033812;28;20188;-81
2022/09/13 03:21:06;;;;;;;11.98;1.75;;;20.60;99.90;;;;;;5034201;28;20195;-80
2022/09/13 03:23:52;;;;;;;4.22;1.85;;;20.70;99.90;;;;;;5016151;28;20194;-81
2022/09/13 03:26:38;;;;;;;2.20;2.00;;;20.70;99.90;;;;;;5015851;28;20211;-80
2022/09/13 03:29:30;;;;;;;2.90;2.05;;;20.70;99.90;;;;;;5033632;28;20171;-80
2022/09/13 03:32:12;;;;;;;4.43;2.22;;;20.60;99.90;;;;;;5033519;28;20184;-80
2022/09/13 03:35:08;;;;;;;4.45;2.10;;;20.50;99.90;;;;;;5033248;28;20219;-81
2022/09/13 03:38:06;;;;;;;2.97;2.38;;;20.50;99.90;;;;;;5033614;28;20206;-81
2022/09/13 03:40:53;;;;;;;3.00;2.35;;;20.50;99.90;;;;;;5027914;28;20274;-81
2022/09/13 03:43:19;;;;;;;6.13;2.55;;;20.60;99.90;;;;;;5033568;28;20160;-81
2022/09/13 03:45:58;;;;;;;2.22;1.77;;;20.60;99.90;;;;;;5033268;28;20285;-80
2022/09/13 03:48:26;;;;;;;4.50;2.05;;;20.70;99.90;;;;;;5033356;28;20191;-81
2022/09/13 03:50:52;;;;;;;2.20;2.00;;;20.60;99.90;;;;;;5033413;28;20164;-81
2022/09/13 03:53:24;;;;;;;5.40;2.20;;;20.60;99.90;;;;;;5033189;28;20645;-81
2022/09/13 03:55:50;;;;;;;2.10;1.90;;;20.40;99.90;;;;;;5032959;28;20191;-80
2022/09/13 03:58:18;;;;;;;3.67;2.30;;;20.40;99.90;;;;;;5033281;28;20176;-81
2022/09/13 04:00:44;;;;;;;6.90;2.75;;;20.50;99.90;;;;;;5032920;28;20171;-80
2022/09/13 04:03:11;;;;;;;4.22;2.38;;;20.60;99.90;;;;;;5033192;28;20630;-81
2022/09/13 04:05:37;;;;;;;3.67;3.00;;;20.60;99.90;;;;;;5033396;28;20666;-81
2022/09/13 04:08:05;;;;;;;3.90;2.40;;;20.70;99.90;;;;;;5033190;28;20164;-82
2022/09/13 04:10:31;;;;;;;2.20;2.00;;;20.60;99.90;;;;;;5032916;28;20175;-81
2022/09/13 04:12:59;;;;;;;3.10;1.90;;;20.60;99.90;;;;;;5033098;28;20504;-80
2022/09/13 04:15:25;;;;;;;6.65;1.67;;;20.60;99.90;;;;;;5033083;28;20539;-81
2022/09/13 04:17:50;;;;;;;4.57;1.92;;;20.60;99.90;;;;;;5032683;28;20176;-81
2022/09/13 04:20:16;;;;;;;4.63;2.50;;;20.70;99.90;;;;;;5032775;28;20799;-81
2022/09/13 04:22:42;;;;;;;1.80;1.70;;;20.60;99.90;;;;;;5032882;28;20195;-82
2022/09/13 04:25:08;;;;;;;2.88;2.20;;;20.70;99.90;;;;;;5014690;28;20657;-81
2022/09/13 04:27:37;;;;;;;3.83;2.00;;;20.70;99.90;;;;;;5032574;28;20636;-82
2022/09/13 04:30:03;;;;;;;4.40;1.95;;;20.70;99.90;;;;;;5032500;28;20214;-82
2022/09/13 04:32:29;;;;;;;20.10;2.63;;;20.70;99.90;;;;;;5014807;28;20259;-80
2022/09/13 04:34:55;;;;;;;6.80;2.38;;;20.70;99.90;;;;;;5014713;28;20279;-83
2022/09/13 04:37:21;;;;;;;5.47;2.58;;;20.70;99.90;;;;;;5032612;28;20167;-80
2022/09/13 04:39:47;;;;;;;7.90;2.33;;;20.70;99.90;;;;;;5032536;28;20271;-82
2022/09/13 04:42:13;;;;;;;4.88;2.30;;;20.70;99.90;;;;;;5032542;28;20585;-81
2022/09/13 04:44:38;;;;;;;3.92;2.78;;;20.80;99.90;;;;;;5032250;28;20184;-81
2022/09/13 04:47:07;;;;;;;5.35;2.88;;;20.70;99.90;;;;;;5032280;28;20288;-81
2022/09/13 04:49:32;;;;;;;4.60;2.05;;;20.70;99.90;;;;;;5014652;28;20217;-81
2022/09/13 04:51:58;;;;;;;9.48;2.70;;;20.70;99.90;;;;;;5032284;28;20179;-81
2022/09/13 04:54:26;;;;;;;7.57;2.05;;;20.70;99.90;;;;;;5032316;28;20253;-81
2022/09/13 04:56:52;;;;;;;3.53;2.22;;;20.70;99.90;;;;;;5032291;28;20235;-81
2022/09/13 04:59:18;;;;;;;11.88;2.42;;;20.70;99.90;;;;;;5032520;28;20188;-82
2022/09/13 05:01:44;;;;;;;5.40;2.25;;;20.70;99.90;;;;;;5032541;28;20206;-81
2022/09/13 05:04:09;;;;;;;8.82;2.20;;;20.70;99.90;;;;;;5032061;28;20176;-82
2022/09/13 05:06:35;;;;;;;5.95;2.20;;;20.60;99.90;;;;;;5014179;28;20219;-81
2022/09/13 05:09:02;;;;;;;3.05;2.10;;;20.70;99.90;;;;;;5014539;28;20163;-81
2022/09/13 05:11:28;;;;;;;3.80;2.53;;;20.70;99.90;;;;;;5014668;28;20266;-81
2022/09/13 05:13:59;;;;;;;5.60;2.63;;;20.70;99.90;;;;;;5014835;28;20175;-82
2022/09/13 05:16:30;;;;;;;3.65;2.78;;;20.80;99.90;;;;;;5033241;28;20258;-81
2022/09/13 05:18:57;;;;;;;4.30;3.08;;;20.80;99.90;;;;;;5035893;28;20199;-81
2022/09/13 05:21:23;;;;;;;3.53;2.67;;;20.70;99.90;;;;;;5018092;28;20174;-80
2022/09/13 05:23:51;;;;;;;5.55;2.47;;;20.70;99.90;;;;;;5035506;28;20172;-81
2022/09/13 05:26:17;;;;;;;8.60;2.55;;;20.80;99.90;;;;;;5036854;28;20203;-91
2022/09/13 05:28:43;;;;;;;3.60;2.30;;;20.70;99.90;;;;;;5020969;28;20271;-83
2022/09/13 05:31:20;;;;;;;7.93;2.28;;;20.50;99.90;;;;;;5036385;28;20211;-85
2022/09/13 05:33:51;;;;;;;15.07;2.50;;;20.50;99.90;;;;;;5037955;28;20186;-91
2022/09/13 05:36:17;;;;;;;10.27;2.15;;;20.60;99.90;;;;;;5020179;28;20182;-91
2022/09/13 05:38:43;;;;;;;13.57;2.60;;;20.40;99.90;;;;;;5039112;28;20168;-93
2022/09/13 05:41:10;;;;;;;2.97;2.65;;;20.10;99.90;;;;;;5044488;28;20167;-86
2022/09/13 05:43:36;;;;;;;4.55;2.92;;;20.00;99.90;;;;;;5025618;28;20195;-87
2022/09/13 05:46:09;;;;;;;6.93;2.42;;;20.20;99.90;;;;;;5018165;28;20203;-86
2022/09/13 05:48:35;;;;;;;5.18;2.55;;;20.30;99.90;;;;;;5036692;28;20217;-87
2022/09/13 05:51:09;;;;;;;2.20;2.00;;;20.40;99.90;;;;;;5035110;28;20511;-87
2022/09/13 05:53:39;;;;;;;3.92;2.42;;;20.50;99.90;;;;;;5036061;28;20163;-83
2022/09/13 05:56:10;;;;;;;2.83;2.33;;;20.60;99.90;;;;;;5017461;28;20195;-82
2022/09/13 05:58:41;;;;;;;7.57;2.17;;;20.60;99.90;;;;;;5035609;28;20172;-83
2022/09/13 06:01:07;;;;;;;13.25;2.20;;;20.50;99.90;;;;;;5035525;28;20175;-82
2022/09/13 06:03:33;;;;;;;8.68;2.55;;;20.60;99.90;;;;;;5017883;28;20171;-82
2022/09/13 06:05:59;;;;;;;11.55;2.83;;;20.60;99.90;;;;;;5034947;28;20570;-82
2022/09/13 06:08:26;;;;;;;6.13;2.35;;;20.50;99.90;;;;;;5035110;28;20257;-83
2022/09/13 06:11:01;;;;;;;8.88;2.85;;;20.40;99.90;;;;;;5037171;28;20168;-84
2022/09/13 06:13:27;;;;;;;12.18;2.67;;;20.50;99.90;;;;;;5017495;28;20258;-81
2022/09/13 06:15:54;;;;;;;8.57;2.65;;;20.60;99.90;;;;;;5034823;28;20195;-79
2022/09/13 06:18:20;;;;;;;6.93;2.42;;;20.70;99.90;;;;;;5034806;28;20176;-80
2022/09/13 06:20:46;;;;;;;3.45;2.38;;;20.70;99.90;;;;;;5034451;28;20168;-80
2022/09/13 06:23:12;;;;;;;2.45;2.17;;;20.90;99.90;;;;;;5016225;28;20255;-79
2022/09/13 06:25:38;;;;;;;3.45;2.58;;;20.90;99.90;;;;;;5034226;28;20219;-79
2022/09/13 06:28:04;;;;;;;13.05;2.20;;;21.00;99.90;;;;;;5033177;28;20736;-79
2022/09/13 06:30:29;;;;;;;6.60;2.53;;;21.10;99.90;;;;;;5034630;28;20196;-80
2022/09/13 06:32:56;;;;;;;3.35;2.45;;;21.10;99.90;;;;;;5034456;28;20195;-80
2022/09/13 06:35:21;;;;;;;5.03;2.58;;;21.10;99.90;;;;;;5033730;28;20205;-80
2022/09/13 06:37:47;;;;;;;3.53;2.22;;;21.20;99.90;;;;;;5034464;28;20187;-80
2022/09/13 06:40:13;;;;;;;5.80;2.80;;;21.10;99.90;;;;;;5034502;28;20505;-80
2022/09/13 06:42:38;;;;;;;3.20;2.30;;;21.10;99.90;;;;;;5034321;28;20176;-80
2022/09/13 06:45:05;;;;;;;10.88;2.90;;;21.10;99.90;;;;;;5034354;28;20229;-80
2022/09/13 06:47:31;;;;;;;10.50;2.70;;;21.00;99.90;;;;;;5034137;28;20215;-80
2022/09/13 06:49:57;;;;;;;8.50;3.13;;;20.90;99.90;;;;;;5033542;28;20225;-80
2022/09/13 06:52:23;;;;;;;6.65;2.47;;;20.90;99.90;;;;;;5034014;28;20190;-80
2022/09/13 06:54:49;;;;;;;3.50;2.53;;;20.90;99.90;;;;;;5033942;28;20176;-79
2022/09/13 06:57:15;;;;;;;9.00;2.70;;;21.10;99.90;;;;;;5033915;28;20168;-79
2022/09/13 06:59:41;;;;;;;6.63;2.72;;;21.10;99.90;;;;;;5034504;28;20175;-84
2022/09/13 07:02:08;;;;;;;7.82;2.38;;;21.40;99.90;;;;;;5035355;28;20509;-87
2022/09/13 07:04:33;;;;;;;8.73;2.78;;;21.40;99.90;;;;;;5052496;28;20187;-82
2022/09/13 07:06:59;;;;;;;7.03;2.47;;;21.60;99.90;;;;;;5083712;28;20220;-82
2022/09/13 07:09:25;;;;;;;4.70;2.33;;;21.90;99.90;;;;;;5040346;28;20181;-83
2022/09/13 07:11:53;;;;;;;11.32;2.53;;;22.20;99.90;;;;;;5053619;28;20540;-83
2022/09/13 07:14:24;;;;;;;8.10;2.30;;;22.50;99.90;;;;;;5050631;28;20226;-82
2022/09/13 07:16:51;;;;;;;12.38;2.97;;;22.70;99.90;;;;;;5054327;28;20651;-87
2022/09/13 07:19:21;;;;;;;10.30;3.25;;;22.80;99.90;;;;;;5054845;28;20246;-88
2022/09/13 07:21:48;;;;;;;11.75;2.50;;;22.60;99.90;;;;;;5037733;28;20167;-89
2022/09/13 07:24:14;;;;;;;6.72;2.88;;;22.50;99.90;;;;;;5036539;28;20762;-88
2022/09/13 07:26:40;;;;;;;6.90;2.90;;;22.60;99.90;;;;;;5070435;28;20573;-86
2022/09/13 07:29:09;;;;;;;5.00;2.45;;;22.70;99.90;;;;;;5071112;28;20167;-87
2022/09/13 07:31:38;;;;;;;9.30;3.20;;;22.90;99.90;;;;;;5070517;28;20290;-89
2022/09/13 07:34:06;;;;;;;12.45;3.50;;;23.10;99.90;;;;;;5069843;28;20189;-84
2022/09/13 07:36:35;;;;;;;10.20;2.83;;;23.30;99.90;;;;;;5086340;28;20664;-84
2022/09/13 07:39:03;;;;;;;7.93;3.83;;;23.60;99.90;;;;;;5070364;28;20174;-83
2022/09/13 07:41:30;;;;;;;14.32;2.80;;;23.80;99.90;;;;;;5070548;28;20175;-83
2022/09/13 07:43:56;;;;;;;7.53;2.50;;;23.90;99.90;;;;;;5051862;28;20181;-82
2022/09/13 07:46:25;;;;;;;8.48;2.72;;;24.10;99.90;;;;;;5048023;28;20341;-81
2022/09/13 07:48:55;;;;;;;17.13;3.15;;;24.30;99.90;;;;;;5029974;28;20260;-81
2022/09/13 07:51:23;;;;;;;9.65;2.88;;;24.50;99.90;;;;;;5054099;28;20173;-82
2022/09/13 07:53:51;;;;;;;27.30;3.47;;;24.70;99.90;;;;;;5038927;28;20162;-82
2022/09/13 07:56:22;;;;;;;10.93;2.88;;;24.80;99.90;;;;;;5070579;28;20813;-82
2022/09/13 07:58:50;;;;;;;16.92;2.42;;;24.90;99.90;;;;;;5041041;28;20254;-84
2022/09/13 08:01:17;;;;;;;20.55;3.47;;;24.70;99.90;;;;;;5032299;28;20183;-83
2022/09/13 08:03:43;;;;;;;22.20;3.53;;;24.70;99.90;;;;;;5052989;28;20279;-82
2022/09/13 08:06:09;;;;;;;9.57;3.50;;;24.60;99.90;;;;;;5051635;28;20212;-86
2022/09/13 08:08:36;;;;;;;18.13;3.35;;;24.40;99.90;;;;;;5041679;28;20224;-82
2022/09/13 08:11:04;;;;;;;20.38;3.25;;;24.20;99.90;;;;;;5054981;28;20197;-85
2022/09/13 08:13:31;;;;;;;11.20;2.80;;;24.10;99.90;;;;;;5049991;28;20650;-87
2022/09/13 08:16:03;;;;;;;8.70;3.15;;;24.10;99.90;;;;;;5054501;28;20175;-85
2022/09/13 08:18:30;;;;;;;7.93;3.25;;;24.10;99.90;;;;;;5047294;28;20281;-85
2022/09/13 08:20:57;;;;;;;3.75;3.03;;;24.10;99.90;;;;;;5034869;28;20163;-86
2022/09/13 08:23:23;;;;;;;3.60;3.13;;;24.00;99.90;;;;;;5036654;28;20202;-86
2022/09/13 08:25:49;;;;;;;7.45;2.92;;;24.10;99.90;;;;;;5054831;28;20225;-86
2022/09/13 08:28:16;;;;;;;4.97;3.15;;;24.10;99.90;;;;;;5072878;28;20624;-84
2022/09/13 08:30:44;;;;;;;8.27;2.90;;;24.10;99.90;;;;;;5040824;28;20249;-86
2022/09/13 08:33:10;;;;;;;11.05;3.10;;;24.10;99.90;;;;;;5068523;28;20171;-85
2022/09/13 08:35:37;;;;;;;8.52;2.75;;;24.30;99.90;;;;;;5068094;28;20307;-86
2022/09/13 08:38:04;;;;;;;6.45;3.28;;;24.30;99.90;;;;;;5067668;28;20197;-84
2022/09/13 08:40:39;;;;;;;12.95;4.13;;;24.30;99.90;;;;;;5060534;28;20178;-87
2022/09/13 08:43:14;;;;;;;6.65;3.33;;;24.40;99.90;;;;;;5038772;28;20177;-88
2022/09/13 08:45:40;;;;;;;9.25;3.60;;;24.50;99.90;;;;;;5033827;28;20277;-85
2022/09/13 08:48:15;;;;;;;5.93;3.40;;;24.60;99.90;;;;;;5033791;28;20170;-86
2022/09/13 08:50:43;;;;;;;6.78;3.00;;;24.70;99.90;;;;;;5051688;28;20191;-87
2022/09/13 08:53:21;;;;;;;6.50;2.88;;;24.90;99.90;;;;;;5034070;28;20637;-87
2022/09/13 08:56:08;;;;;;;4.43;3.38;;;25.00;99.90;;;;;;5035482;28;20253;-82
2022/09/13 08:58:41;;;;;;;8.32;3.47;;;25.20;99.90;;;;;;5049481;28;20175;-81
2022/09/13 09:01:28;;;;;;;7.03;4.35;;;25.30;99.90;;;;;;5033973;28;20225;-81
2022/09/13 09:04:05;;;;;;;5.38;3.97;;;25.40;99.90;;;;;;5050892;28;20170;-81
2022/09/13 09:06:34;;;;;;;6.03;4.05;;;25.70;99.90;;;;;;5051166;28;20206;-81
2022/09/13 09:09:20;;;;;;;6.60;3.47;;;25.90;99.90;;;;;;5050128;28;20678;-82
2022/09/13 09:12:14;;;;;;;10.45;3.85;;;26.00;99.90;;;;;;5051463;28;20225;-82
2022/09/13 09:14:56;;;;;;;13.75;3.65;;;26.10;99.90;;;;;;5033075;28;20202;-82
2022/09/13 09:17:29;;;;;;;5.25;4.30;;;26.10;99.90;;;;;;5033192;28;20658;-82
2022/09/13 09:20:21;;;;;;;3.85;3.35;;;26.20;99.90;;;;;;5033374;28;20175;-81
2022/09/13 09:22:49;;;;;;;7.70;3.10;;;26.40;99.90;;;;;;5051275;28;20205;-81
2022/09/13 09:25:15;;;;;;;5.75;3.50;;;26.20;99.90;;;;;;5051308;28;20288;-82
2022/09/13 09:27:41;;;;;;;14.85;3.88;;;26.20;99.90;;;;;;5051296;28;20640;-82
2022/09/13 09:30:13;;;;;;;6.75;3.00;;;26.20;99.90;;;;;;5033723;28;20178;-82
2022/09/13 09:32:57;;;;;;;13.07;3.72;;;26.50;99.90;;;;;;5052181;28;20167;-82
2022/09/13 09:35:55;;;;;;;10.98;3.28;;;26.80;99.90;;;;;;5033798;28;20191;-81
2022/09/13 09:38:33;;;;;;;3.25;2.80;;;26.40;99.90;;;;;;5052180;28;20179;-82
2022/09/13 09:41:04;;;;;;;3.38;3.00;;;26.10;99.90;;;;;;5033881;28;20182;-81
2022/09/13 09:44:02;;;;;;;13.52;2.92;;;26.30;99.90;;;;;;5051933;28;20186;-82
2022/09/13 09:46:36;;;;;;;6.05;3.75;;;26.50;99.90;;;;;;5034139;28;20672;-82
2022/09/13 09:50:07;;;;;;;6.57;3.17;;;26.60;99.90;;;;;;5051303;28;20171;-82
2022/09/13 09:52:02;;;;;;;7.38;3.03;;;26.50;99.90;;;;;;5051410;28;20190;-81
2022/09/13 09:54:29;;;;;;;12.85;3.40;;;26.30;99.90;;;;;;5051840;28;20211;-81
2022/09/13 09:56:55;;;;;;;11.60;4.00;;;26.10;99.90;;;;;;5051791;28;20174;-82
2022/09/13 09:59:32;;;;;;;12.55;3.40;;;26.20;99.90;;;;;;5051633;28;20167;-82
2022/09/13 10:02:13;;;;;;;10.50;3.70;;;26.20;99.90;;;;;;5052173;28;20166;-82
2022/09/13 10:04:39;;;;;;;10.07;4.10;;;26.40;99.90;;;;;;5037162;28;20190;-81
2022/09/13 10:07:31;;;;;;;21.02;4.35;;;26.50;99.90;;;;;;5055133;28;20209;-82
2022/09/13 10:10:05;;;;;;;8.07;3.83;;;26.20;99.90;;;;;;5055232;28;20526;-81
2022/09/13 10:12:34;;;;;;;23.48;4.43;;;26.00;99.90;;;;;;5054906;28;20648;-82
2022/09/13 10:15:28;;;;;;;18.63;3.22;;;25.80;99.90;;;;;;5055028;28;20199;-82
2022/09/13 10:18:14;;;;;;;16.02;3.80;;;26.20;99.90;;;;;;5052258;28;20732;-82
2022/09/13 10:20:41;;;;;;;10.30;3.33;;;26.40;99.90;;;;;;5054721;28;20164;-82
2022/09/13 10:23:11;;;;;;;26.98;3.13;;;26.30;99.90;;;;;;5054821;28;20171;-82
2022/09/13 10:25:38;;;;;;;14.45;3.08;;;26.50;99.90;;;;;;5036820;28;20198;-82
2022/09/13 10:28:09;;;;;;;16.67;3.80;;;26.60;99.90;;;;;;5054779;28;20183;-81
2022/09/13 10:30:44;;;;;;;5.90;3.13;;;26.70;99.90;;;;;;5054546;28;20190;-81
2022/09/13 10:33:26;;;;;;;13.30;3.40;;;26.70;99.90;;;;;;5054264;28;20177;-80
2022/09/13 10:35:56;;;;;;;11.85;3.35;;;26.70;99.90;;;;;;5054184;28;20191;-80
2022/09/13 10:38:35;;;;;;;9.48;2.17;;;26.50;99.90;;;;;;5054665;28;20163;-80
2022/09/13 10:41:03;;;;;;;7.18;3.00;;;26.90;99.90;;;;;;5054481;28;20167;-80
2022/09/13 10:43:31;;;;;;;13.40;3.42;;;27.00;99.90;;;;;;5054675;28;20232;-80
2022/09/13 10:45:58;;;;;;;19.98;3.35;;;26.80;99.90;;;;;;5036220;28;20207;-80
2022/09/13 10:48:25;;;;;;;7.70;3.05;;;26.90;99.90;;;;;;5036352;28;20579;-80
2022/09/13 10:51:20;;;;;;;8.38;2.83;;;27.20;99.90;;;;;;5054069;28;20156;-80
2022/09/13 10:53:46;;;;;;;6.97;3.97;;;27.10;99.90;;;;;;5054551;28;20167;-80
2022/09/13 10:56:38;;;;;;;9.25;3.22;;;27.30;99.90;;;;;;5036111;28;20592;-81
2022/09/13 10:59:26;;;;;;;11.27;4.05;;;27.20;99.90;;;;;;5050299;28;20194;-80
2022/09/13 11:02:37;;;;;;;7.55;4.35;;;27.20;99.90;;;;;;5054015;28;20221;-80
2022/09/13 11:05:25;;;;;;;7.90;4.35;;;27.30;99.90;;;;;;5053582;28;20194;-80
2022/09/13 11:08:11;;;;;;;7.40;3.70;;;27.10;99.90;;;;;;5053926;28;20198;-80
2022/09/13 11:10:48;;;;;;;13.07;3.35;;;26.80;99.90;;;;;;5053880;28;20282;-80
2022/09/13 11:13:26;;;;;;;10.77;2.95;;;27.00;99.90;;;;;;5053619;28;20171;-81
2022/09/13 11:16:26;;;;;;;6.40;3.65;;;27.20;99.90;;;;;;5053615;28;20194;-81
2022/09/13 11:19:22;;;;;;;11.35;3.83;;;27.10;99.90;;;;;;5053522;28;20183;-78
2022/09/13 11:22:10;;;;;;;8.73;3.53;;;26.70;99.90;;;;;;5042439;28;20183;-79
2022/09/13 11:24:45;;;;;;;5.38;3.72;;;26.70;99.90;;;;;;5053446;28;20199;-80
2022/09/13 11:27:29;;;;;;;9.80;3.13;;;26.70;99.90;;;;;;5053431;28;20211;-79
2022/09/13 11:29:54;;;;;;;8.38;2.92;;;26.80;99.90;;;;;;5053337;28;20190;-79
2022/09/13 11:33:11;;;;;;;12.55;3.40;;;27.00;99.90;;;;;;5035306;28;20672;-79
2022/09/13 11:36:07;;;;;;;12.23;2.95;;;27.10;99.90;;;;;;5019096;28;20677;-79
2022/09/13 11:38:57;;;;;;;21.40;2.75;;;27.20;99.90;;;;;;5053364;28;20175;-80
2022/09/13 11:42:07;;;;;;;6.55;3.00;;;27.40;99.90;;;;;;5053277;28;20171;-79
2022/09/13 11:44:50;;;;;;;4.68;2.30;;;27.60;99.90;;;;;;4972307;28;20224;-79
2022/09/13 11:47:22;;;;;;;12.60;3.20;;;27.70;99.90;;;;;;4955923;28;20213;-78
2022/09/13 11:50:15;;;;;;;5.57;2.88;;;27.70;99.90;;;;;;5022675;28;20171;-79
2022/09/13 11:52:58;;;;;;;9.77;2.60;;;27.50;99.90;;;;;;5053058;28;20167;-79
2022/09/13 11:55:26;;;;;;;6.03;2.50;;;27.50;99.90;;;;;;5052795;28;20236;-78
2022/09/13 11:57:56;;;;;;;3.38;1.98;;;27.60;99.90;;;;;;5035076;28;20167;-79
2022/09/13 12:00:27;;;;;;;12.48;2.17;;;27.60;99.90;;;;;;5052991;28;20191;-79
2022/09/13 12:03:22;;;;;;;3.00;2.10;;;27.50;99.90;;;;;;5052739;28;20566;-78
2022/09/13 12:05:52;;;;;;;3.45;2.20;;;27.30;99.90;;;;;;5052406;28;20186;-80
2022/09/13 12:08:21;;;;;;;3.83;2.65;;;27.00;99.90;;;;;;5052558;28;20258;-83
2022/09/13 12:10:56;;;;;;;6.82;2.20;;;26.90;99.90;;;;;;5034628;28;20167;-83
2022/09/13 12:13:34;;;;;;;3.50;2.00;;;26.70;99.90;;;;;;5034763;28;20174;-83
2022/09/13 12:16:28;;;;;;;2.72;1.58;;;26.60;99.90;;;;;;5034607;28;20194;-83
2022/09/13 12:18:58;;;;;;;3.25;1.77;;;26.60;99.90;;;;;;5045973;28;20210;-83
2022/09/13 12:21:33;;;;;;;6.47;2.10;;;26.70;99.90;;;;;;5052503;28;20182;-83
2022/09/13 12:23:59;;;;;;;7.47;1.90;;;26.90;99.90;;;;;;5052704;28;20167;-83
2022/09/13 12:26:52;;;;;;;6.72;2.25;;;27.10;99.90;;;;;;5034871;28;20221;-83
2022/09/13 12:29:28;;;;;;;5.28;1.80;;;26.60;99.90;;;;;;5052707;28;20245;-83
2022/09/13 12:31:59;;;;;;;2.50;2.03;;;26.50;99.90;;;;;;5034721;28;20183;-83
2022/09/13 12:34:33;;;;;;;17.02;2.67;;;26.60;99.90;;;;;;5052176;28;20194;-82
2022/09/13 12:37:20;;;;;;;13.15;2.67;;;26.60;99.90;;;;;;5034648;28;20170;-83
2022/09/13 12:40:11;;;;;;;8.88;2.40;;;26.30;99.90;;;;;;5052632;28;20309;-84
2022/09/13 12:42:58;;;;;;;15.57;2.92;;;26.40;99.90;;;;;;5052967;28;20183;-85
2022/09/13 12:45:36;;;;;;;10.77;2.28;;;26.20;99.90;;;;;;5035070;28;20214;-84
2022/09/13 12:48:14;;;;;;;5.22;2.60;;;26.20;99.90;;;;;;5052394;28;20183;-85
2022/09/13 12:50:45;;;;;;;3.60;2.30;;;25.90;99.90;;;;;;5034421;28;20262;-84
2022/09/13 12:53:20;;;;;;;3.25;2.90;;;25.10;99.90;;;;;;5034552;28;20636;-85
2022/09/13 12:55:55;;;;;;;7.53;2.88;;;24.70;99.90;;;;;;5034505;28;20201;-83
2022/09/13 12:58:29;;;;;;;3.30;2.63;;;24.70;99.90;;;;;;5052757;28;20205;-82
2022/09/13 13:01:18;;;;;;;8.88;2.80;;;24.70;99.90;;;;;;5034342;28;20257;-85
2022/09/13 13:04:11;;;;;;;3.85;2.53;;;24.70;99.90;;;;;;5051874;28;20201;-83
2022/09/13 13:06:50;;;;;;;6.03;3.15;;;24.50;99.90;;;;;;5052881;28;20211;-84
2022/09/13 13:09:41;;;;;;;6.43;3.83;;;24.30;99.90;;;;;;5052962;28;20171;-88
2022/09/13 13:12:25;;;;;;;5.93;3.60;;;24.40;99.90;;;;;;5035225;28;20228;-88
2022/09/13 13:14:52;;;;;;;8.38;3.38;;;24.50;99.90;;;;;;5035661;28;20187;-88
2022/09/13 13:17:38;;;;;;;6.38;3.60;;;24.50;99.90;;;;;;5052914;28;20185;-87